Time;durP1;ratioP1;P1;durP2;ratioP2;P2;SDS_P1;SDS_P2;PMS_P1;PMS_P2;Temp;Humidity;BMP_temperature;BMP_pressure;BME280_temperature;BME280_humidity;BME280_pressure;Samples;Min_cycle;Max_cycle;Signal;HPM_P1;HPM_P2
2024/04/14 00:00:18;;;;;;;;;;;;;;;;;;5457605;26;5350;-56
2024/04/14 00:02:43;;;;;;;;;;;;;;;;;;5472654;26;3448;-56
2024/04/14 00:05:09;;;;;;;;;;;;;;;;;;5454052;26;4638;-55
2024/04/14 00:07:34;;;;;;;;;;;;;;;;;;5472048;26;5135;-56
2024/04/14 00:09:59;;;;;;;;;;;;;;;;;;5469578;26;4849;-56
2024/04/14 00:12:25;;;;;;;;;;;;;;;;;;5459147;26;5204;-56
2024/04/14 00:14:50;;;;;;;;;;;;;;;;;;5459671;26;5176;-57
2024/04/14 00:17:15;;;;;;;;;;;;;;;;;;5470508;26;3642;-56
2024/04/14 00:19:41;;;;;;;;;;;;;;;;;;5473973;26;4531;-55
2024/04/14 00:22:06;;;;;;;;;;;;;;;;;;5470991;26;5039;-56
2024/04/14 00:24:32;;;;;;;;;;;;;;;;;;5432959;26;4626;-56
2024/04/14 00:26:57;;;;;;;;;;;;;;;;;;5466633;26;5117;-56
2024/04/14 00:29:23;;;;;;;;;;;;;;;;;;5457896;26;3367;-56
2024/04/14 00:31:48;;;;;;;;;;;;;;;;;;5478306;26;5156;-55
2024/04/14 00:34:13;;;;;;;;;;;;;;;;;;5460377;26;4938;-56
2024/04/14 00:36:39;;;;;;;;;;;;;;;;;;5457512;26;5436;-56
2024/04/14 00:39:04;;;;;;;;;;;;;;;;;;5460110;26;5135;-57
2024/04/14 00:41:29;;;;;;;;;;;;;;;;;;5476236;26;3296;-56
2024/04/14 00:43:55;;;;;;;;;;;;;;;;;;5428818;26;5140;-54
2024/04/14 00:46:20;;;;;;;;;;;;;;;;;;5478017;26;5008;-56
2024/04/14 00:48:46;;;;;;;;;;;;;;;;;;5473070;26;5592;-56
2024/04/14 00:51:11;;;;;;;;;;;;;;;;;;5447285;26;5229;-55
2024/04/14 00:53:36;;;;;;;;;;;;;;;;;;5425995;26;3915;-55
2024/04/14 00:56:02;;;;;;;;;;;;;;;;;;5459014;26;5070;-56
2024/04/14 00:58:27;;;;;;;;;;;;;;;;;;5479952;26;5163;-56
2024/04/14 01:00:53;;;;;;;;;;;;;;;;;;5435804;26;5133;-56
2024/04/14 01:03:18;;;;;;;;;;;;;;;;;;5470320;26;5347;-56
2024/04/14 01:05:43;;;;;;;;;;;;;;;;;;5473818;26;3993;-56
2024/04/14 01:08:09;;;;;;;;;;;;;;;;;;5463409;26;5741;-56
2024/04/14 01:10:35;;;;;;;;;;;;;;;;;;5475930;26;5295;-56
2024/04/14 01:13:00;;;;;;;;;;;;;;;;;;5460080;26;4516;-56
2024/04/14 01:15:25;;;;;;;;;;;;;;;;;;5478730;26;5367;-57
2024/04/14 01:17:51;;;;;;;;;;;;;;;;;;5438011;26;5152;-56
2024/04/14 01:20:16;;;;;;;;;;;;;;;;;;5455737;26;3776;-56
2024/04/14 01:22:41;;;;;;;;;;;;;;;;;;5425088;26;5147;-56
2024/04/14 01:25:07;;;;;;;;;;;;;;;;;;5409631;26;5173;-56
2024/04/14 01:27:36;;;;;;;;;;;;;;;;;;5443675;26;4544;-55
2024/04/14 01:30:05;;;;;;;;;;;;;;;;;;5443909;26;5212;-56
2024/04/14 01:32:31;;;;;;;;;;;;;;;;;;5434183;26;3421;-56
2024/04/14 01:34:56;;;;;;;;;;;;;;;;;;5398509;26;5284;-56
2024/04/14 01:37:21;;;;;;;;;;;;;;;;;;5433775;26;5059;-56
2024/04/14 01:39:47;;;;;;;;;;;;;;;;;;5436829;26;5134;-56
2024/04/14 01:42:13;;;;;;;;;;;;;;;;;;5435671;26;5218;-56
2024/04/14 01:44:38;;;;;;;;;;;;;;;;;;5405726;26;1846;-56
2024/04/14 01:47:04;;;;;;;;;;;;;;;;;;5405090;26;5025;-56
2024/04/14 01:49:29;;;;;;;;;;;;;;;;;;5429790;26;5196;-56
2024/04/14 01:51:55;;;;;;;;;;;;;;;;;;5430777;26;5060;-56
2024/04/14 01:54:20;;;;;;;;;;;;;;;;;;5432538;26;4679;-56
2024/04/14 01:56:45;;;;;;;;;;;;;;;;;;5434571;26;3511;-56
2024/04/14 01:59:12;;;;;;;;;;;;;;;;;;5427405;26;5126;-56
2024/04/14 02:01:37;;;;;;;;;;;;;;;;;;5426309;26;4671;-56
2024/04/14 02:04:03;;;;;;;;;;;;;;;;;;5425668;26;4760;-56
2024/04/14 02:06:28;;;;;;;;;;;;;;;;;;5432406;26;4526;-56
2024/04/14 02:08:53;;;;;;;;;;;;;;;;;;5435179;26;5323;-56
2024/04/14 02:11:19;;;;;;;;;;;;;;;;;;5445493;26;1353;-56
2024/04/14 02:13:44;;;;;;;;;;;;;;;;;;5431307;26;4696;-56
2024/04/14 02:16:10;;;;;;;;;;;;;;;;;;5417684;26;5213;-56
2024/04/14 02:18:35;;;;;;;;;;;;;;;;;;5435725;26;5211;-55
2024/04/14 02:21:01;;;;;;;;;;;;;;;;;;5441571;26;5418;-56
2024/04/14 02:23:26;;;;;;;;;;;;;;;;;;5411425;26;3519;-55
2024/04/14 02:25:55;;;;;;;;;;;;;;;;;;5385666;26;4538;-55
2024/04/14 02:28:20;;;;;;;;;;;;;;;;;;5442748;26;5105;-56
2024/04/14 02:30:46;;;;;;;;;;;;;;;;;;5461394;26;4521;-56
2024/04/14 02:33:11;;;;;;;;;;;;;;;;;;5458714;26;5063;-56
2024/04/14 02:35:39;;;;;;;;;;;;;;;;;;5455764;26;1270;-55
2024/04/14 02:38:04;;;;;;;;;;;;;;;;;;5470326;26;5210;-56
2024/04/14 02:40:30;;;;;;;;;;;;;;;;;;5455440;26;5141;-56
2024/04/14 02:42:55;;;;;;;;;;;;;;;;;;5477173;26;5236;-54
2024/04/14 02:45:20;;;;;;;;;;;;;;;;;;5465098;26;5218;-55
2024/04/14 02:47:46;;;;;;;;;;;;;;;;;;5462047;26;4016;-56
2024/04/14 02:50:11;;;;;;;;;;;;;;;;;;5463028;26;4688;-55
2024/04/14 02:52:36;;;;;;;;;;;;;;;;;;5460193;26;5078;-55
2024/04/14 02:55:02;;;;;;;;;;;;;;;;;;5463838;26;4559;-56
2024/04/14 02:57:27;;;;;;;;;;;;;;;;;;5477911;26;5234;-56
2024/04/14 02:59:53;;;;;;;;;;;;;;;;;;5461408;26;4750;-56
2024/04/14 03:02:18;;;;;;;;;;;;;;;;;;5449820;26;2185;-58
2024/04/14 03:04:46;;;;;;;;;;;;;;;;;;5447892;26;5209;-56
2024/04/14 03:07:12;;;;;;;;;;;;;;;;;;5464171;26;5157;-55
2024/04/14 03:09:37;;;;;;;;;;;;;;;;;;5428357;26;5208;-55
2024/04/14 03:12:03;;;;;;;;;;;;;;;;;;5460863;26;4683;-54
2024/04/14 03:14:28;;;;;;;;;;;;;;;;;;5462000;26;3288;-56
2024/04/14 03:16:53;;;;;;;;;;;;;;;;;;5462749;26;5072;-56
2024/04/14 03:19:19;;;;;;;;;;;;;;;;;;5466144;26;4535;-56
2024/04/14 03:21:46;;;;;;;;;;;;;;;;;;5437999;26;5237;-55
2024/04/14 03:24:11;;;;;;;;;;;;;;;;;;5415124;26;5270;-55
2024/04/14 03:26:36;;;;;;;;;;;;;;;;;;5426479;26;3392;-56
2024/04/14 03:29:02;;;;;;;;;;;;;;;;;;5415659;26;5163;-56
2024/04/14 03:31:27;;;;;;;;;;;;;;;;;;5434151;26;5077;-55
2024/04/14 03:33:52;;;;;;;;;;;;;;;;;;5406043;26;5310;-57
2024/04/14 03:36:18;;;;;;;;;;;;;;;;;;5434413;26;5137;-56
2024/04/14 03:38:43;;;;;;;;;;;;;;;;;;5440254;26;3349;-56
2024/04/14 03:41:08;;;;;;;;;;;;;;;;;;5433519;26;5047;-56
2024/04/14 03:43:34;;;;;;;;;;;;;;;;;;5429786;26;5149;-55
2024/04/14 03:45:59;;;;;;;;;;;;;;;;;;5426322;26;5181;-56
2024/04/14 03:48:24;;;;;;;;;;;;;;;;;;5423797;26;5466;-55
2024/04/14 03:50:50;;;;;;;;;;;;;;;;;;5432767;26;5280;-56
2024/04/14 03:53:15;;;;;;;;;;;;;;;;;;5446597;26;3479;-56
2024/04/14 03:55:40;;;;;;;;;;;;;;;;;;5424394;26;4501;-56
2024/04/14 03:58:06;;;;;;;;;;;;;;;;;;5426722;26;5211;-55
2024/04/14 04:00:31;;;;;;;;;;;;;;;;;;5436318;26;4673;-56
2024/04/14 04:02:57;;;;;;;;;;;;;;;;;;5430568;26;4761;-55
2024/04/14 04:05:22;;;;;;;;;;;;;;;;;;5430803;26;3539;-54
2024/04/14 04:07:48;;;;;;;;;;;;;;;;;;5425552;26;4721;-54
2024/04/14 04:10:13;;;;;;;;;;;;;;;;;;5434923;26;5117;-56
2024/04/14 04:12:39;;;;;;;;;;;;;;;;;;5432261;26;5194;-56
2024/04/14 04:15:04;;;;;;;;;;;;;;;;;;5443225;26;5211;-55
2024/04/14 04:17:30;;;;;;;;;;;;;;;;;;5434066;26;3589;-56
2024/04/14 04:19:55;;;;;;;;;;;;;;;;;;5435643;26;5202;-56
2024/04/14 04:22:20;;;;;;;;;;;;;;;;;;5460859;26;5275;-55
2024/04/14 04:24:46;;;;;;;;;;;;;;;;;;5461491;26;5041;-54
2024/04/14 04:27:11;;;;;;;;;;;;;;;;;;5445079;26;5251;-55
2024/04/14 04:29:37;;;;;;;;;;;;;;;;;;5445892;26;3526;-55
2024/04/14 04:32:03;;;;;;;;;;;;;;;;;;5439686;26;5084;-55
2024/04/14 04:34:28;;;;;;;;;;;;;;;;;;5434482;26;5461;-56
2024/04/14 04:36:53;;;;;;;;;;;;;;;;;;5442634;26;4636;-56
2024/04/14 04:39:19;;;;;;;;;;;;;;;;;;5437917;26;5119;-56
2024/04/14 04:41:44;;;;;;;;;;;;;;;;;;5461516;26;3522;-54
2024/04/14 04:44:10;;;;;;;;;;;;;;;;;;5448112;26;5177;-55
2024/04/14 04:46:35;;;;;;;;;;;;;;;;;;5469588;26;5094;-56
2024/04/14 04:49:00;;;;;;;;;;;;;;;;;;5472531;26;5235;-56
2024/04/14 04:51:29;;;;;;;;;;;;;;;;;;5473047;26;5392;-55
2024/04/14 04:53:54;;;;;;;;;;;;;;;;;;5457835;26;4700;-56
2024/04/14 04:56:19;;;;;;;;;;;;;;;;;;5475666;26;3594;-53
2024/04/14 04:58:45;;;;;;;;;;;;;;;;;;5477677;26;5062;-55
2024/04/14 05:01:10;;;;;;;;;;;;;;;;;;5479016;26;5116;-55
2024/04/14 05:03:36;;;;;;;;;;;;;;;;;;5468408;26;5091;-55
2024/04/14 05:06:02;;;;;;;;;;;;;;;;;;5480242;26;5255;-55
2024/04/14 05:08:27;;;;;;;;;;;;;;;;;;5442467;26;1205;-55
2024/04/14 05:10:53;;;;;;;;;;;;;;;;;;5441384;26;5144;-56
2024/04/14 05:13:19;;;;;;;;;;;;;;;;;;5460586;26;5199;-55
2024/04/14 05:15:44;;;;;;;;;;;;;;;;;;5480264;26;5210;-56
2024/04/14 05:18:10;;;;;;;;;;;;;;;;;;5467346;26;5597;-56
2024/04/14 05:20:35;;;;;;;;;;;;;;;;;;5436281;26;2308;-55
2024/04/14 05:23:01;;;;;;;;;;;;;;;;;;5455487;26;5158;-55
2024/04/14 05:25:26;;;;;;;;;;;;;;;;;;5474282;26;4674;-55
2024/04/14 05:27:52;;;;;;;;;;;;;;;;;;5470598;26;5285;-56
2024/04/14 05:30:18;;;;;;;;;;;;;;;;;;5469289;26;5092;-54
2024/04/14 05:32:43;;;;;;;;;;;;;;;;;;5446701;26;3227;-56
2024/04/14 05:35:09;;;;;;;;;;;;;;;;;;5466977;26;5411;-55
2024/04/14 05:37:34;;;;;;;;;;;;;;;;;;5476662;26;5326;-55
2024/04/14 05:39:59;;;;;;;;;;;;;;;;;;5475598;26;5178;-56
2024/04/14 05:42:25;;;;;;;;;;;;;;;;;;5477468;26;4582;-57
2024/04/14 05:44:50;;;;;;;;;;;;;;;;;;5481489;26;5277;-55
2024/04/14 05:47:15;;;;;;;;;;;;;;;;;;5463606;26;3489;-55
2024/04/14 05:49:41;;;;;;;;;;;;;;;;;;5467926;26;5547;-55
2024/04/14 05:52:06;;;;;;;;;;;;;;;;;;5440755;26;5253;-56
2024/04/14 05:54:32;;;;;;;;;;;;;;;;;;5475918;26;5198;-55
2024/04/14 05:56:57;;;;;;;;;;;;;;;;;;5477485;26;5331;-55
2024/04/14 05:59:22;;;;;;;;;;;;;;;;;;5469269;26;1283;-56
2024/04/14 06:01:48;;;;;;;;;;;;;;;;;;5479222;26;5176;-55
2024/04/14 06:04:13;;;;;;;;;;;;;;;;;;5475077;26;6166;-54
2024/04/14 06:06:39;;;;;;;;;;;;;;;;;;5464662;26;5187;-56
2024/04/14 06:09:04;;;;;;;;;;;;;;;;;;5462989;26;5226;-56
2024/04/14 06:11:29;;;;;;;;;;;;;;;;;;5477735;26;3557;-55
2024/04/14 06:13:55;;;;;;;;;;;;;;;;;;5472728;26;5167;-56
2024/04/14 06:16:20;;;;;;;;;;;;;;;;;;5465083;26;5245;-55
2024/04/14 06:18:46;;;;;;;;;;;;;;;;;;5420565;26;4711;-56
2024/04/14 06:21:11;;;;;;;;;;;;;;;;;;5451206;26;5202;-55
2024/04/14 06:23:37;;;;;;;;;;;;;;;;;;5461823;26;3622;-55
2024/04/14 06:26:03;;;;;;;;;;;;;;;;;;5460177;26;5125;-57
2024/04/14 06:28:28;;;;;;;;;;;;;;;;;;5461692;26;5180;-56
2024/04/14 06:30:54;;;;;;;;;;;;;;;;;;5456576;26;5242;-64
2024/04/14 06:33:20;;;;;;;;;;;;;;;;;;5469603;26;5256;-64
2024/04/14 06:35:45;;;;;;;;;;;;;;;;;;5466331;26;2479;-64
2024/04/14 06:38:11;;;;;;;;;;;;;;;;;;5459927;26;4984;-64
2024/04/14 06:40:36;;;;;;;;;;;;;;;;;;5475932;26;5044;-64
2024/04/14 06:43:01;;;;;;;;;;;;;;;;;;5475391;26;4729;-65
2024/04/14 06:45:27;;;;;;;;;;;;;;;;;;5474630;26;4708;-64
2024/04/14 06:47:52;;;;;;;;;;;;;;;;;;5470448;26;4561;-62
2024/04/14 06:50:18;;;;;;;;;;;;;;;;;;5454755;26;3656;-75
2024/04/14 06:52:43;;;;;;;;;;;;;;;;;;5430328;26;5124;-69
2024/04/14 06:55:11;;;;;;;;;;;;;;;;;;5405597;26;4703;-71
2024/04/14 06:57:37;;;;;;;;;;;;;;;;;;5399589;26;5377;-69
2024/04/14 07:00:02;;;;;;;;;;;;;;;;;;5432213;26;5118;-70
2024/04/14 07:02:27;;;;;;;;;;;;;;;;;;5469221;26;3691;-67
2024/04/14 07:04:53;;;;;;;;;;;;;;;;;;5466950;26;4578;-69
2024/04/14 07:07:18;;;;;;;;;;;;;;;;;;5418051;26;5162;-70
2024/04/14 07:09:43;;;;;;;;;;;;;;;;;;5426706;26;5236;-70
2024/04/14 07:12:09;;;;;;;;;;;;;;;;;;5460767;26;5224;-70
2024/04/14 07:14:34;;;;;;;;;;;;;;;;;;5463975;26;3206;-69
2024/04/14 07:16:59;;;;;;;;;;;;;;;;;;5463845;26;4478;-69
2024/04/14 07:19:25;;;;;;;;;;;;;;;;;;5459807;26;5147;-72
2024/04/14 07:21:50;;;;;;;;;;;;;;;;;;5444649;26;4738;-72
2024/04/14 07:24:15;;;;;;;;;;;;;;;;;;5431471;26;5173;-73
2024/04/14 07:26:41;;;;;;;;;;;;;;;;;;5466380;26;3384;-72
2024/04/14 07:29:06;;;;;;;;;;;;;;;;;;5445988;26;5087;-66
2024/04/14 07:31:31;;;;;;;;;;;;;;;;;;5462943;26;5147;-64
2024/04/14 07:34:00;;;;;;;;;;;;;;;;;;5470084;26;5123;-67
2024/04/14 07:36:25;;;;;;;;;;;;;;;;;;5478660;26;4662;-68
2024/04/14 07:38:51;;;;;;;;;;;;;;;;;;5471694;26;5044;-67
2024/04/14 07:41:16;;;;;;;;;;;;;;;;;;5425402;26;3621;-66
2024/04/14 07:43:41;;;;;;;;;;;;;;;;;;5427839;26;5362;-69
2024/04/14 07:46:07;;;;;;;;;;;;;;;;;;5444859;26;4681;-66
2024/04/14 07:48:32;;;;;;;;;;;;;;;;;;5466859;26;5254;-67
2024/04/14 07:50:57;;;;;;;;;;;;;;;;;;5464190;26;5180;-74
2024/04/14 07:53:23;;;;;;;;;;;;;;;;;;5424839;26;3630;-66
2024/04/14 07:55:49;;;;;;;;;;;;;;;;;;5460925;26;5056;-65
2024/04/14 07:58:15;;;;;;;;;;;;;;;;;;5432957;26;5147;-67
2024/04/14 08:00:40;;;;;;;;;;;;;;;;;;5464022;26;4622;-65
2024/04/14 08:03:06;;;;;;;;;;;;;;;;;;5472893;26;5149;-65
2024/04/14 08:05:31;;;;;;;;;;;;;;;;;;5458986;26;3926;-71
2024/04/14 08:07:57;;;;;;;;;;;;;;;;;;5465911;26;5110;-64
2024/04/14 08:10:22;;;;;;;;;;;;;;;;;;5467846;26;5154;-66
2024/04/14 08:12:48;;;;;;;;;;;;;;;;;;5469097;26;5351;-62
2024/04/14 08:15:13;;;;;;;;;;;;;;;;;;5458682;26;4715;-65
2024/04/14 08:17:38;;;;;;;;;;;;;;;;;;5463933;26;4009;-65
2024/04/14 08:20:04;;;;;;;;;;;;;;;;;;5436326;26;5123;-68
2024/04/14 08:22:29;;;;;;;;;;;;;;;;;;5466946;26;4545;-61
2024/04/14 08:24:55;;;;;;;;;;;;;;;;;;5461616;26;4716;-61
2024/04/14 08:27:20;;;;;;;;;;;;;;;;;;5468522;26;5036;-61
2024/04/14 08:29:46;;;;;;;;;;;;;;;;;;5469411;26;3489;-61
2024/04/14 08:32:12;;;;;;;;;;;;;;;;;;5455985;26;5135;-60
2024/04/14 08:34:37;;;;;;;;;;;;;;;;;;5431302;26;5217;-61
2024/04/14 08:37:02;;;;;;;;;;;;;;;;;;5459819;26;5362;-61
2024/04/14 08:39:28;;;;;;;;;;;;;;;;;;5468209;26;5142;-61
2024/04/14 08:41:53;;;;;;;;;;;;;;;;;;5458162;26;4788;-61
2024/04/14 08:44:18;;;;;;;;;;;;;;;;;;5442199;26;2589;-59
2024/04/14 08:46:44;;;;;;;;;;;;;;;;;;5428068;26;5226;-60
2024/04/14 08:49:12;;;;;;;;;;;;;;;;;;5466301;26;4585;-59
2024/04/14 08:51:37;;;;;;;;;;;;;;;;;;5432055;26;5158;-61
2024/04/14 08:54:03;;;;;;;;;;;;;;;;;;5433188;26;5236;-62
2024/04/14 08:56:28;;;;;;;;;;;;;;;;;;5432845;26;3600;-62
2024/04/14 08:58:56;;;;;;;;;;;;;;;;;;5388120;26;5210;-61
2024/04/14 09:01:21;;;;;;;;;;;;;;;;;;5423057;26;4503;-60
2024/04/14 09:03:48;;;;;;;;;;;;;;;;;;5461039;26;5132;-69
2024/04/14 09:06:13;;;;;;;;;;;;;;;;;;5456312;26;5093;-71
2024/04/14 09:08:39;;;;;;;;;;;;;;;;;;5420675;26;3500;-71
2024/04/14 09:11:05;;;;;;;;;;;;;;;;;;5469608;26;5354;-71
2024/04/14 09:13:31;;;;;;;;;;;;;;;;;;5433653;26;4814;-70
2024/04/14 09:15:56;;;;;;;;;;;;;;;;;;5476369;26;5163;-72
2024/04/14 09:18:22;;;;;;;;;;;;;;;;;;5491091;26;5122;-71
2024/04/14 09:20:48;;;;;;;;;;;;;;;;;;5504638;25;5202;-72
2024/04/14 09:23:13;;;;;;;;;;;;;;;;;;5465424;26;3511;-58
2024/04/14 09:25:38;;;;;;;;;;;;;;;;;;5496837;26;5092;-57
2024/04/14 09:28:06;;;;;;;;;;;;;;;;;;5492776;26;5324;-57
2024/04/14 09:30:32;;;;;;;;;;;;;;;;;;5501573;26;4528;-56
2024/04/14 09:32:57;;;;;;;;;;;;;;;;;;5462717;26;5198;-57
2024/04/14 09:35:22;;;;;;;;;;;;;;;;;;5501585;26;1410;-57
2024/04/14 09:37:48;;;;;;;;;;;;;;;;;;5502731;26;4646;-56
2024/04/14 09:40:14;;;;;;;;;;;;;;;;;;5513638;26;5238;-58
2024/04/14 09:42:39;;;;;;;;;;;;;;;;;;5477951;26;4527;-57
2024/04/14 09:45:05;;;;;;;;;;;;;;;;;;5500797;26;5330;-57
2024/04/14 09:47:30;;;;;;;;;;;;;;;;;;5501326;26;3481;-57
2024/04/14 09:49:56;;;;;;;;;;;;;;;;;;5503521;26;4655;-57
2024/04/14 09:52:21;;;;;;;;;;;;;;;;;;5460137;26;4552;-56
2024/04/14 09:54:47;;;;;;;;;;;;;;;;;;5458380;26;5251;-57
2024/04/14 09:57:12;;;;;;;;;;;;;;;;;;5478378;26;5712;-59
2024/04/14 09:59:37;;;;;;;;;;;;;;;;;;5493103;26;3620;-56
2024/04/14 10:02:03;;;;;;;;;;;;;;;;;;5503612;26;4682;-58
2024/04/14 10:04:28;;;;;;;;;;;;;;;;;;5465561;26;4637;-59
2024/04/14 10:06:54;;;;;;;;;;;;;;;;;;5508087;25;5225;-59
2024/04/14 10:09:19;;;;;;;;;;;;;;;;;;5477905;26;5161;-58
2024/04/14 10:11:45;;;;;;;;;;;;;;;;;;5510418;26;3580;-57
2024/04/14 10:14:11;;;;;;;;;;;;;;;;;;5504336;26;4437;-58
2024/04/14 10:16:37;;;;;;;;;;;;;;;;;;5502649;26;4770;-58
2024/04/14 10:19:03;;;;;;;;;;;;;;;;;;5500576;26;5087;-58
2024/04/14 10:21:28;;;;;;;;;;;;;;;;;;5506283;26;5141;-58
2024/04/14 10:23:57;;;;;;;;;;;;;;;;;;5499452;26;5244;-58
2024/04/14 10:26:22;;;;;;;;;;;;;;;;;;5473340;26;3442;-56
2024/04/14 10:28:51;;;;;;;;;;;;;;;;;;5506377;26;4661;-58
2024/04/14 10:31:30;;;;;;;;;;;;;;;;;;5489274;26;5000;-54
2024/04/14 10:34:00;;;;;;;;;;;;;;;;;;5513391;25;4516;-57
2024/04/14 10:36:26;;;;;;;;;;;;;;;;;;5502847;26;5217;-58
2024/04/14 10:38:51;;;;;;;;;;;;;;;;;;5499550;26;5130;-56
2024/04/14 10:41:17;;;;;;;;;;;;;;;;;;5450461;26;3489;-62
2024/04/14 10:43:42;;;;;;;;;;;;;;;;;;5497177;26;5105;-63
2024/04/14 10:46:09;;;;;;;;;;;;;;;;;;5464515;26;5233;-62
2024/04/14 10:48:34;;;;;;;;;;;;;;;;;;5505743;26;5095;-62
2024/04/14 10:51:01;;;;;;;;;;;;;;;;;;5495586;26;5276;-58
2024/04/14 10:53:28;;;;;;;;;;;;;;;;;;5495246;25;3507;-60
2024/04/14 10:55:53;;;;;;;;;;;;;;;;;;5480243;26;5153;-57
2024/04/14 10:58:18;;;;;;;;;;;;;;;;;;5487149;25;5121;-62
2024/04/14 11:00:44;;;;;;;;;;;;;;;;;;5500756;26;5044;-59
2024/04/14 11:03:10;;;;;;;;;;;;;;;;;;5505576;26;5455;-59
2024/04/14 11:05:35;;;;;;;;;;;;;;;;;;5505405;26;4051;-60
2024/04/14 11:08:01;;;;;;;;;;;;;;;;;;5506594;26;4516;-60
2024/04/14 11:10:26;;;;;;;;;;;;;;;;;;5507769;25;5099;-59
2024/04/14 11:12:52;;;;;;;;;;;;;;;;;;5490970;26;4550;-59
2024/04/14 11:15:18;;;;;;;;;;;;;;;;;;5494982;26;5223;-59
2024/04/14 11:17:44;;;;;;;;;;;;;;;;;;5507369;26;3308;-66
2024/04/14 11:20:12;;;;;;;;;;;;;;;;;;5510239;25;4448;-65
2024/04/14 11:22:38;;;;;;;;;;;;;;;;;;5435653;26;5231;-70
2024/04/14 11:25:03;;;;;;;;;;;;;;;;;;5491765;26;5183;-65
2024/04/14 11:27:28;;;;;;;;;;;;;;;;;;5480406;26;5199;-68
2024/04/14 11:29:54;;;;;;;;;;;;;;;;;;5456013;26;5449;-70
2024/04/14 11:32:33;;;;;;;;;;;;;;;;;;5500773;26;3979;-67
2024/04/14 11:35:00;;;;;;;;;;;;;;;;;;5455296;26;4700;-71
2024/04/14 11:37:29;;;;;;;;;;;;;;;;;;5476031;26;5695;-65
2024/04/14 11:39:56;;;;;;;;;;;;;;;;;;5512777;26;4655;-66
2024/04/14 11:42:21;;;;;;;;;;;;;;;;;;5501073;26;5319;-73
2024/04/14 11:44:47;;;;;;;;;;;;;;;;;;5509511;26;5343;-69
2024/04/14 11:47:12;;;;;;;;;;;;;;;;;;5511948;25;3161;-70
2024/04/14 11:49:37;;;;;;;;;;;;;;;;;;5503650;26;4634;-73
2024/04/14 11:52:03;;;;;;;;;;;;;;;;;;5491465;25;4717;-70
2024/04/14 11:54:28;;;;;;;;;;;;;;;;;;5498480;26;5245;-61
2024/04/14 11:56:54;;;;;;;;;;;;;;;;;;5493429;26;5130;-68
2024/04/14 11:59:19;;;;;;;;;;;;;;;;;;5499555;26;3519;-64
2024/04/14 12:01:45;;;;;;;;;;;;;;;;;;5502044;26;4614;-61
2024/04/14 12:04:11;;;;;;;;;;;;;;;;;;5473622;26;5257;-61
2024/04/14 12:06:36;;;;;;;;;;;;;;;;;;5499405;26;5213;-64
2024/04/14 12:09:01;;;;;;;;;;;;;;;;;;5506015;26;5130;-63
2024/04/14 12:11:27;;;;;;;;;;;;;;;;;;5469170;26;3404;-61
2024/04/14 12:13:52;;;;;;;;;;;;;;;;;;5509534;26;4946;-60
2024/04/14 12:16:18;;;;;;;;;;;;;;;;;;5510962;26;4677;-61
2024/04/14 12:18:44;;;;;;;;;;;;;;;;;;5492495;25;6204;-61
2024/04/14 12:21:09;;;;;;;;;;;;;;;;;;5477423;25;3563;-60
2024/04/14 12:23:34;;;;;;;;;;;;;;;;;;5486854;25;2210;-58
2024/04/14 12:26:00;;;;;;;;;;;;;;;;;;5481637;25;5820;-61
2024/04/14 12:28:25;;;;;;;;;;;;;;;;;;5498985;26;5256;-59
2024/04/14 12:30:51;;;;;;;;;;;;;;;;;;5496032;26;4597;-69
2024/04/14 12:33:16;;;;;;;;;;;;;;;;;;5492106;26;4563;-62
2024/04/14 12:35:42;;;;;;;;;;;;;;;;;;5498332;26;3472;-61
2024/04/14 12:38:08;;;;;;;;;;;;;;;;;;5501614;25;5004;-58
2024/04/14 12:40:33;;;;;;;;;;;;;;;;;;5499388;26;5175;-60
2024/04/14 12:42:59;;;;;;;;;;;;;;;;;;5505245;25;5313;-61
2024/04/14 12:45:25;;;;;;;;;;;;;;;;;;5483877;26;4637;-60
2024/04/14 12:47:50;;;;;;;;;;;;;;;;;;5499449;26;5186;-60
2024/04/14 12:50:18;;;;;;;;;;;;;;;;;;5504817;26;3380;-60
2024/04/14 12:52:44;;;;;;;;;;;;;;;;;;5495986;26;5111;-59
2024/04/14 12:55:10;;;;;;;;;;;;;;;;;;5492968;26;4563;-59
2024/04/14 12:57:35;;;;;;;;;;;;;;;;;;5496351;25;5239;-59
2024/04/14 13:00:01;;;;;;;;;;;;;;;;;;5505356;26;5073;-59
2024/04/14 13:02:26;;;;;;;;;;;;;;;;;;5506377;26;1397;-58
2024/04/14 13:04:52;;;;;;;;;;;;;;;;;;5503017;26;5060;-58
2024/04/14 13:07:17;;;;;;;;;;;;;;;;;;5495914;26;5090;-59
2024/04/14 13:09:42;;;;;;;;;;;;;;;;;;5493561;25;5298;-58
2024/04/14 13:12:08;;;;;;;;;;;;;;;;;;5494289;26;5367;-59
2024/04/14 13:14:35;;;;;;;;;;;;;;;;;;5499026;26;1251;-59
2024/04/14 13:17:01;;;;;;;;;;;;;;;;;;5510007;26;4780;-58
2024/04/14 13:19:26;;;;;;;;;;;;;;;;;;5499448;26;5136;-58
2024/04/14 13:21:51;;;;;;;;;;;;;;;;;;5499779;25;5474;-60
2024/04/14 13:24:17;;;;;;;;;;;;;;;;;;5501854;26;5109;-59
2024/04/14 13:26:43;;;;;;;;;;;;;;;;;;5503930;26;1532;-59
2024/04/14 13:29:08;;;;;;;;;;;;;;;;;;5517091;26;4505;-58
2024/04/14 13:31:33;;;;;;;;;;;;;;;;;;5505791;26;5112;-59
2024/04/14 13:33:59;;;;;;;;;;;;;;;;;;5510547;26;5222;-57
2024/04/14 13:36:24;;;;;;;;;;;;;;;;;;5479541;26;5095;-59
2024/04/14 13:38:52;;;;;;;;;;;;;;;;;;5502025;26;4713;-58
2024/04/14 13:41:19;;;;;;;;;;;;;;;;;;5507044;25;1768;-58
2024/04/14 13:43:45;;;;;;;;;;;;;;;;;;5480215;26;4640;-58
2024/04/14 13:46:10;;;;;;;;;;;;;;;;;;5510660;26;5080;-59
2024/04/14 13:48:36;;;;;;;;;;;;;;;;;;5507385;26;4523;-58
2024/04/14 13:51:01;;;;;;;;;;;;;;;;;;5511547;26;5297;-59
2024/04/14 13:53:27;;;;;;;;;;;;;;;;;;5510650;26;1343;-59
2024/04/14 13:55:52;;;;;;;;;;;;;;;;;;5516355;26;4765;-58
2024/04/14 13:58:19;;;;;;;;;;;;;;;;;;5479877;26;5148;-58
2024/04/14 14:00:45;;;;;;;;;;;;;;;;;;5517499;26;4807;-59
2024/04/14 14:03:11;;;;;;;;;;;;;;;;;;5517205;26;5268;-58
2024/04/14 14:05:36;;;;;;;;;;;;;;;;;;5517990;26;1558;-58
2024/04/14 14:08:01;;;;;;;;;;;;;;;;;;5517225;26;5127;-58
2024/04/14 14:10:27;;;;;;;;;;;;;;;;;;5507646;26;5235;-58
2024/04/14 14:12:52;;;;;;;;;;;;;;;;;;5514520;26;5186;-59
2024/04/14 14:15:18;;;;;;;;;;;;;;;;;;5508543;26;4539;-59
2024/04/14 14:17:44;;;;;;;;;;;;;;;;;;5512816;26;2845;-58
2024/04/14 14:20:09;;;;;;;;;;;;;;;;;;5505515;26;5085;-59
2024/04/14 14:22:34;;;;;;;;;;;;;;;;;;5508582;25;4529;-58
2024/04/14 14:25:00;;;;;;;;;;;;;;;;;;5512966;25;4493;-59
2024/04/14 14:27:25;;;;;;;;;;;;;;;;;;5508103;26;5263;-58
2024/04/14 14:29:51;;;;;;;;;;;;;;;;;;5519512;25;4888;-59
2024/04/14 14:32:16;;;;;;;;;;;;;;;;;;5514183;26;1815;-58
2024/04/14 14:37:25;;;;;;;;;;;;;;;;;;5508215;26;5280;-59
2024/04/14 14:39:51;;;;;;;;;;;;;;;;;;5506293;26;4700;-58
2024/04/14 14:42:17;;;;;;;;;;;;;;;;;;5509240;26;5179;-59
2024/04/14 14:44:42;;;;;;;;;;;;;;;;;;5467541;26;1950;-58
2024/04/14 14:47:07;;;;;;;;;;;;;;;;;;5509377;26;4964;-59
2024/04/14 14:49:33;;;;;;;;;;;;;;;;;;5507910;26;5166;-59
2024/04/14 14:51:58;;;;;;;;;;;;;;;;;;5514147;26;5197;-58
2024/04/14 14:54:23;;;;;;;;;;;;;;;;;;5497554;26;5205;-59
2024/04/14 14:56:49;;;;;;;;;;;;;;;;;;5521250;26;4784;-58
2024/04/14 14:59:14;;;;;;;;;;;;;;;;;;5519208;26;1546;-58
2024/04/14 15:01:39;;;;;;;;;;;;;;;;;;5520663;26;4468;-58
2024/04/14 15:04:05;;;;;;;;;;;;;;;;;;5503436;26;5597;-59
2024/04/14 15:06:30;;;;;;;;;;;;;;;;;;5517335;26;5250;-59
2024/04/14 15:08:55;;;;;;;;;;;;;;;;;;5512233;26;5050;-58
2024/04/14 15:11:21;;;;;;;;;;;;;;;;;;5521007;26;1354;-58
2024/04/14 15:13:47;;;;;;;;;;;;;;;;;;5488085;26;4492;-58
2024/04/14 15:16:12;;;;;;;;;;;;;;;;;;5499796;26;5414;-59
2024/04/14 15:18:38;;;;;;;;;;;;;;;;;;5520494;26;5109;-59
2024/04/14 15:21:04;;;;;;;;;;;;;;;;;;5512726;25;5192;-58
2024/04/14 15:23:29;;;;;;;;;;;;;;;;;;5444906;26;1829;-58
2024/04/14 15:25:54;;;;;;;;;;;;;;;;;;5456643;26;5089;-58
2024/04/14 15:28:20;;;;;;;;;;;;;;;;;;5463279;26;4706;-59
2024/04/14 15:30:45;;;;;;;;;;;;;;;;;;5454136;26;4674;-58
2024/04/14 15:33:11;;;;;;;;;;;;;;;;;;5456722;26;6070;-58
2024/04/14 15:35:36;;;;;;;;;;;;;;;;;;5469601;26;1593;-59
2024/04/14 15:38:01;;;;;;;;;;;;;;;;;;5471824;26;4635;-59
2024/04/14 15:40:27;;;;;;;;;;;;;;;;;;5455023;26;5163;-59
2024/04/14 15:42:52;;;;;;;;;;;;;;;;;;5455162;26;4655;-58
2024/04/14 15:45:17;;;;;;;;;;;;;;;;;;5457102;26;5118;-58
2024/04/14 15:47:43;;;;;;;;;;;;;;;;;;5474086;26;1302;-59
2024/04/14 15:50:08;;;;;;;;;;;;;;;;;;5458618;26;5089;-60
2024/04/14 15:52:34;;;;;;;;;;;;;;;;;;5469207;26;4576;-58
2024/04/14 15:54:59;;;;;;;;;;;;;;;;;;5453238;26;5251;-58
2024/04/14 15:57:25;;;;;;;;;;;;;;;;;;5461537;26;5279;-58
2024/04/14 15:59:50;;;;;;;;;;;;;;;;;;5456570;26;5168;-59
2024/04/14 16:02:15;;;;;;;;;;;;;;;;;;5468661;26;1784;-58
2024/04/14 16:04:41;;;;;;;;;;;;;;;;;;5455907;26;5311;-59
2024/04/14 16:07:06;;;;;;;;;;;;;;;;;;5473361;26;4520;-58
2024/04/14 16:09:32;;;;;;;;;;;;;;;;;;5457007;26;4536;-59
2024/04/14 16:11:57;;;;;;;;;;;;;;;;;;5454991;26;4740;-58
2024/04/14 16:14:23;;;;;;;;;;;;;;;;;;5469189;26;1423;-59
2024/04/14 16:16:48;;;;;;;;;;;;;;;;;;5460250;26;4832;-58
2024/04/14 16:19:14;;;;;;;;;;;;;;;;;;5450907;26;5282;-59
2024/04/14 16:21:39;;;;;;;;;;;;;;;;;;5468854;26;4600;-59
2024/04/14 16:24:05;;;;;;;;;;;;;;;;;;5513244;26;5073;-59
2024/04/14 16:26:30;;;;;;;;;;;;;;;;;;5510651;26;1486;-59
2024/04/14 16:28:55;;;;;;;;;;;;;;;;;;5501791;26;5092;-58
2024/04/14 16:31:21;;;;;;;;;;;;;;;;;;5507103;26;4604;-58
2024/04/14 16:33:46;;;;;;;;;;;;;;;;;;5505920;26;5282;-58
2024/04/14 16:36:12;;;;;;;;;;;;;;;;;;5464076;26;5061;-58
2024/04/14 16:38:37;;;;;;;;;;;;;;;;;;5518954;26;1381;-58
2024/04/14 16:41:04;;;;;;;;;;;;;;;;;;5504170;25;5072;-58
2024/04/14 16:43:29;;;;;;;;;;;;;;;;;;5499296;26;5078;-59
2024/04/14 16:45:54;;;;;;;;;;;;;;;;;;5482398;26;5372;-60
2024/04/14 16:48:21;;;;;;;;;;;;;;;;;;5497276;26;5210;-58
2024/04/14 16:50:46;;;;;;;;;;;;;;;;;;5518931;26;1286;-57
2024/04/14 16:53:11;;;;;;;;;;;;;;;;;;5518563;26;4467;-59